Sutherland Springs, TX (78161)

9:53 AM CDT on July 04, 2015 (GMT -0500)
Triple R Ranch | | Change Station
CLOSE
Current Station
Personal Weather Station
Location: La Vernia, TX
Elevation: 617 ft
Nearby Weather Stations

Elev 617 ft 29.28 °N, 98.13 °W | Updated 4 seconds ago

Overcast
Overcast
84.6 °F
Feels Like 94 °F
N
8.5
Wind Variable Wind from South
Gusts 9.0 mph

Today
High -- | Low -- °F
--% Chance of Precip.
Yesterday
High -- | Low -- °F
Precip. -- in
6:37 AM 8:35 PM
Waning Gibbous, 92% visible
Pressure 30.02 in
Visibility 10.0 miles
Clouds Scattered Clouds 1500 ft
Scattered Clouds 2300 ft
Scattered Clouds 3000 ft
Heat Index 94 °F
Dew Point 76 °F
Humidity 77%
Rainfall 0.00 in
Snow Depth Not available.
UV 4 out of 12
Pollen 3.00 out of 12
Air Quality Not available.
Flu Activity Not available.
SPECI KRND 041441Z AUTO 18010KT 10SM SCT015 SCT023 SCT030 27/23 A3002 RMK AO2 DZB02E11

More Conditions Fewer Conditions

Pressure 30.02 in
Visibility 10.0 miles
Clouds Scattered Clouds 1500 ft
Scattered Clouds 2300 ft
Scattered Clouds 3000 ft
Heat Index 94 °F
Dew Point 76 °F
Humidity 77%
Rainfall 0.00 in
Snow Depth Not available.
UV 4 out of 12
Pollen 3.00 out of 12
Air Quality Not available.
Flu Activity Not available.
SPECI KRND 041441Z AUTO 18010KT 10SM SCT015 SCT023 SCT030 27/23 A3002 RMK AO2 DZB02E11

More Conditions Fewer Conditions

10-Day Weather Forecast

×

Almanac

Astronomy

Jul. 04, 2015 Rise Set
Actual Time
Civil Twilight
Nautical Twilight
Astronomical Twilight
Moon
Length of Visible Light
Length of Day
Tomorrow will be .
, % of the Moon is Illuminated

Today's Extremes

State Highs State Lows

Community

WunderPhotos

Upload Photos

1,834,982 photos uploaded!

WunderBlogs® & News

Nearby

Air Quality

  Air Quality AQ Index Pollutant
Not available.

Snow Depth

Station Depth Elevation

Earthquake Activity

City Distance Mag. Time & Date
Minimum magnitude displayed is 2.5.

Coastal Water Temperatures

Place Temperature

Stations

Nearby Weather Stations

Station Location Temp. Windchill Dew Point Humidity Wind Precip. Elev Updated Type